Terminal Aerodrome Forecast
Issued by NWS Albany, NY

Home | Current Version | Previous Version | Text Only | Print | Product List | Glossary On
Versions: 1 2 3 4 5 6 7 8 9 10 11 12 13 14 15 16 17 18 19
000
FTUS41 KALY 290500
TAFPOU
TAF
KPOU 290536Z 2906/3006 29005KT P6SM OVC045
     FM290900 26003KT P6SM SCT045
     FM291700 26005KT P6SM SCT060
     FM300100 00000KT P6SM FEW060=

USA.gov is the U.S. government's official web portal to all federal, state and local government web resources and services.